Time;durP1;ratioP1;P1;durP2;ratioP2;P2;SDS_P1;SDS_P2;PMS_P1;PMS_P2;Temp;Humidity;BMP_temperature;BMP_pressure;BME280_temperature;BME280_humidity;BME280_pressure;Samples;Min_cycle;Max_cycle;Signal;HPM_P1;HPM_P2
2024/01/23 00:02:05;;;;;;;;;;;;;;;7.04;72.85;98281.03;5103054;28;19923;-57
2024/01/23 00:04:55;;;;;;;;;;;;;;;7.04;72.68;98274.81;5104824;27;19924;-61
2024/01/23 00:07:43;;;;;;;;;;;;;;;7.08;72.65;98275.84;5100980;28;19931;-58
2024/01/23 00:10:30;;;;;;;;;;;;;;;7.19;72.26;98272.03;5107351;27;20403;-56
2024/01/23 00:13:19;;;;;;;;;;;;;;;7.18;72.46;98275.78;5100913;28;21094;-56
2024/01/23 00:16:07;;;;;;;;;;;;;;;7.18;72.02;98274.97;5110618;27;19984;-56
2024/01/23 00:18:57;;;;;;;;;;;;;;;7.15;72.27;98273.66;5107648;28;19924;-56
2024/01/23 00:21:46;;;;;;;;;;;;;;;7.13;72.36;98281.22;5106416;28;19924;-61
2024/01/23 00:24:34;;;;;;;;;;;;;;;7.21;72.18;98285.25;5104220;27;19980;-56
2024/01/23 00:27:22;;;;;;;;;;;;;;;7.17;72.04;98279.59;5108964;27;19931;-56
2024/01/23 00:30:11;;;;;;;;;;;;;;;7.22;71.97;98287.66;5100157;28;19935;-57
2024/01/23 00:32:59;;;;;;;;;;;;;;;7.19;72.13;98282.00;5105032;28;19923;-58
2024/01/23 00:35:47;;;;;;;;;;;;;;;7.21;71.83;98286.06;5109400;27;19924;-57
2024/01/23 00:38:38;;;;;;;;;;;;;;;7.30;71.55;98283.56;5106863;27;20755;-56
2024/01/23 00:41:26;;;;;;;;;;;;;;;7.35;71.13;98289.75;5108537;27;19923;-58
2024/01/23 00:44:14;;;;;;;;;;;;;;;7.24;71.57;98285.47;5105284;28;19923;-56
2024/01/23 00:47:02;;;;;;;;;;;;;;;7.31;70.85;98290.59;5110666;27;19931;-57
2024/01/23 00:49:50;;;;;;;;;;;;;;;7.25;71.20;98292.53;5110998;27;19932;-57
2024/01/23 00:52:39;;;;;;;;;;;;;;;7.35;71.04;98297.06;5099696;27;20419;-57
2024/01/23 00:55:28;;;;;;;;;;;;;;;7.24;71.31;98301.69;5103983;28;20507;-60
2024/01/23 00:58:16;;;;;;;;;;;;;;;7.28;71.00;98302.75;5106333;27;20300;-63
2024/01/23 01:01:04;;;;;;;;;;;;;;;7.30;70.92;98297.09;5099939;28;19924;-56
2024/01/23 01:03:55;;;;;;;;;;;;;;;7.28;71.09;98297.34;5106717;28;19923;-57
2024/01/23 01:06:43;;;;;;;;;;;;;;;7.31;71.08;98301.41;5109244;27;20026;-57
2024/01/23 01:09:31;;;;;;;;;;;;;;;7.28;70.99;98301.94;5106938;27;20353;-57
2024/01/23 01:12:21;;;;;;;;;;;;;;;7.19;71.31;98317.97;5102440;27;20396;-56
2024/01/23 01:15:10;;;;;;;;;;;;;;;7.12;72.04;98330.16;5095931;28;20012;-56
2024/01/23 01:17:58;;;;;;;;;;;;;;;7.14;71.45;98341.47;5103828;27;19923;-56
2024/01/23 01:20:48;;;;;;;;;;;;;;;7.21;71.55;98334.69;5091274;28;20373;-56
2024/01/23 01:23:36;;;;;;;;;;;;;;;7.06;71.63;98338.28;5108964;27;20412;-56
2024/01/23 01:26:24;;;;;;;;;;;;;;;7.07;71.67;98341.78;5108495;28;19924;-56
2024/01/23 01:29:14;;;;;;;;;;;;;;;7.06;71.57;98342.88;5101543;27;19924;-57
2024/01/23 01:32:02;;;;;;;;;;;;;;;7.09;70.97;98343.13;5108027;27;20293;-57
2024/01/23 01:34:49;;;;;;;;;;;;;;;7.05;70.51;98342.06;5110631;27;19927;-57
2024/01/23 01:37:38;;;;;;;;;;;;;;;7.05;70.29;98346.66;5106834;27;19930;-56
2024/01/23 01:40:26;;;;;;;;;;;;;;;7.13;70.46;98353.38;5107150;27;19923;-56
2024/01/23 01:43:25;;;;;;;;;;;;;;;7.08;70.93;98348.78;5096336;27;20070;-56
2024/01/23 01:46:16;;;;;;;;;;;;;;;7.11;70.85;98340.16;5102589;27;19932;-56
2024/01/23 01:49:05;;;;;;;;;;;;;;;7.11;70.96;98334.75;5123900;27;20014;-57
2024/01/23 01:51:54;;;;;;;;;;;;;;;7.18;69.93;98334.44;5108840;27;19972;-57
2024/01/23 01:54:43;;;;;;;;;;;;;;;7.18;68.81;98343.34;5107983;27;20007;-56
2024/01/23 01:57:33;;;;;;;;;;;;;;;7.14;69.19;98349.56;5104255;27;20301;-56
2024/01/23 02:00:22;;;;;;;;;;;;;;;7.16;69.40;98345.53;5100525;27;19931;-56
2024/01/23 02:03:11;;;;;;;;;;;;;;;7.17;68.94;98339.03;5109665;27;19923;-56
2024/01/23 02:06:00;;;;;;;;;;;;;;;7.19;68.88;98346.84;5100414;27;19993;-56
2024/01/23 02:08:48;;;;;;;;;;;;;;;7.16;68.82;98353.63;5106482;28;20018;-56
2024/01/23 02:11:36;;;;;;;;;;;;;;;7.06;68.43;98346.38;5104873;27;20408;-56
2024/01/23 02:14:24;;;;;;;;;;;;;;;6.98;68.54;98340.75;5115693;27;19930;-56
2024/01/23 02:17:12;;;;;;;;;;;;;;;6.95;68.18;98346.72;5107026;27;20010;-56
2024/01/23 02:20:05;;;;;;;;;;;;;;;6.90;68.54;98362.94;5103819;28;20055;-57
2024/01/23 02:22:53;;;;;;;;;;;;;;;6.88;68.14;98359.72;5106753;27;19932;-58
2024/01/23 02:25:42;;;;;;;;;;;;;;;6.86;68.04;98357.25;5105740;27;19946;-59
2024/01/23 02:28:30;;;;;;;;;;;;;;;6.89;68.47;98361.31;5110449;27;19927;-62
2024/01/23 02:31:18;;;;;;;;;;;;;;;6.93;68.10;98359.69;5112534;27;19923;-58
2024/01/23 02:34:06;;;;;;;;;;;;;;;6.88;67.84;98365.13;5108127;27;19988;-57
2024/01/23 02:36:55;;;;;;;;;;;;;;;6.88;68.71;98367.81;5112664;27;20315;-56
2024/01/23 02:39:43;;;;;;;;;;;;;;;6.91;67.88;98369.94;5090539;28;19932;-55
2024/01/23 02:42:32;;;;;;;;;;;;;;;6.89;68.30;98375.63;5105615;27;19924;-57
2024/01/23 02:45:21;;;;;;;;;;;;;;;6.87;68.06;98366.19;5103721;28;19928;-56
2024/01/23 02:48:09;;;;;;;;;;;;;;;6.73;68.47;98380.28;5103282;28;20020;-57
2024/01/23 02:50:58;;;;;;;;;;;;;;;6.78;68.28;98374.84;5102575;28;20317;-56
2024/01/23 02:53:46;;;;;;;;;;;;;;;6.70;68.48;98382.69;5107905;28;19923;-60
2024/01/23 02:56:34;;;;;;;;;;;;;;;6.78;67.90;98385.66;5108064;28;19923;-56
2024/01/23 02:59:23;;;;;;;;;;;;;;;6.77;67.71;98378.66;5113265;28;19928;-55
2024/01/23 03:02:11;;;;;;;;;;;;;;;6.81;67.86;98378.88;5092196;28;19928;-56
2024/01/23 03:05:00;;;;;;;;;;;;;;;6.79;67.47;98376.47;5101588;28;20042;-56
2024/01/23 03:07:50;;;;;;;;;;;;;;;6.82;67.29;98384.03;5089222;28;20344;-56
2024/01/23 03:10:39;;;;;;;;;;;;;;;6.82;67.67;98380.53;5105664;28;20014;-55
2024/01/23 03:13:26;;;;;;;;;;;;;;;6.77;67.29;98380.53;5105507;28;19939;-56
2024/01/23 03:16:16;;;;;;;;;;;;;;;6.83;67.09;98382.13;5105143;28;20425;-58
2024/01/23 03:19:04;;;;;;;;;;;;;;;6.76;66.43;98378.91;5105863;28;19924;-58
2024/01/23 03:21:53;;;;;;;;;;;;;;;6.79;66.28;98381.88;5104079;28;19992;-57
2024/01/23 03:24:41;;;;;;;;;;;;;;;6.79;65.73;98379.16;5097836;28;19924;-57
2024/01/23 03:27:29;;;;;;;;;;;;;;;6.77;65.44;98373.25;5110661;28;19931;-57
2024/01/23 03:30:27;;;;;;;;;;;;;;;6.76;65.38;98371.59;5105481;28;20369;-58
2024/01/23 03:33:17;;;;;;;;;;;;;;;6.70;65.20;98383.50;5105925;28;19930;-58
2024/01/23 03:36:05;;;;;;;;;;;;;;;6.73;65.41;98387.56;5110963;28;20001;-56
2024/01/23 03:38:53;;;;;;;;;;;;;;;6.69;65.28;98381.91;5091820;28;19928;-56
2024/01/23 03:41:41;;;;;;;;;;;;;;;6.77;64.57;98394.84;5106753;27;19978;-58
2024/01/23 03:44:29;;;;;;;;;;;;;;;6.65;64.46;98397.03;5103116;27;19923;-57
2024/01/23 03:47:17;;;;;;;;;;;;;;;6.70;64.29;98394.31;5106208;27;20392;-57
2024/01/23 03:50:07;;;;;;;;;;;;;;;6.65;64.29;98402.41;5108466;27;19924;-61
2024/01/23 03:52:55;;;;;;;;;;;;;;;6.68;64.47;98403.78;5108788;27;20042;-56
2024/01/23 03:55:44;;;;;;;;;;;;;;;6.67;64.31;98400.28;5103453;27;19931;-56
2024/01/23 03:58:32;;;;;;;;;;;;;;;6.59;63.71;98408.91;5103861;27;20023;-57
2024/01/23 04:01:20;;;;;;;;;;;;;;;6.59;64.49;98408.13;5098686;27;20007;-58
2024/01/23 04:04:08;;;;;;;;;;;;;;;6.53;64.22;98415.41;5104495;27;19935;-57
2024/01/23 04:06:57;;;;;;;;;;;;;;;6.44;64.93;98417.03;5100915;27;19924;-57
2024/01/23 04:09:45;;;;;;;;;;;;;;;6.47;64.21;98422.72;5110218;27;19923;-56
2024/01/23 04:12:36;;;;;;;;;;;;;;;6.51;64.64;98431.09;5104805;27;19985;-56
2024/01/23 04:15:25;;;;;;;;;;;;;;;6.57;64.57;98443.50;5109512;28;20066;-57
2024/01/23 04:18:13;;;;;;;;;;;;;;;6.50;64.93;98446.47;5113050;27;20022;-57
2024/01/23 04:21:01;;;;;;;;;;;;;;;6.50;64.62;98437.56;5112044;27;20088;-56
2024/01/23 04:23:50;;;;;;;;;;;;;;;6.53;64.86;98443.22;5105152;27;19928;-58
2024/01/23 04:26:44;;;;;;;;;;;;;;;6.45;65.58;98453.75;5111231;27;19932;-56
2024/01/23 04:29:32;;;;;;;;;;;;;;;6.45;65.60;98462.66;5104020;27;19931;-56
2024/01/23 04:32:20;;;;;;;;;;;;;;;6.27;66.65;98461.31;5111084;27;19923;-58
2024/01/23 04:35:09;;;;;;;;;;;;;;;6.35;66.79;98459.97;5113485;27;19928;-56
2024/01/23 04:37:57;;;;;;;;;;;;;;;6.30;67.00;98474.28;5097580;27;19968;-56
2024/01/23 04:40:46;;;;;;;;;;;;;;;6.30;67.31;98468.06;5103498;27;20518;-56
2024/01/23 04:43:34;;;;;;;;;;;;;;;6.24;67.78;98474.53;5114232;27;19931;-57
2024/01/23 04:46:23;;;;;;;;;;;;;;;6.30;67.72;98492.34;5112180;27;20296;-57
2024/01/23 04:49:11;;;;;;;;;;;;;;;6.34;67.97;98492.59;5110815;27;19977;-56
2024/01/23 04:51:59;;;;;;;;;;;;;;;6.30;68.60;98498.56;5105400;27;19924;-57
2024/01/23 04:54:48;;;;;;;;;;;;;;;6.36;68.73;98496.66;5110019;27;19924;-60
2024/01/23 04:57:37;;;;;;;;;;;;;;;6.36;68.32;98506.66;5106172;28;20292;-57
2024/01/23 05:00:25;;;;;;;;;;;;;;;6.45;68.51;98505.84;5109335;27;19947;-56
2024/01/23 05:03:17;;;;;;;;;;;;;;;6.44;68.45;98495.31;5108477;27;19954;-56
2024/01/23 05:06:05;;;;;;;;;;;;;;;6.40;68.68;98499.66;5104174;27;19975;-60
2024/01/23 05:08:53;;;;;;;;;;;;;;;6.45;68.83;98494.25;5106810;27;19930;-58
2024/01/23 05:11:41;;;;;;;;;;;;;;;6.57;68.37;98519.06;5110651;27;19962;-57
2024/01/23 05:14:31;;;;;;;;;;;;;;;6.65;67.93;98515.81;5110742;27;19980;-57
2024/01/23 05:17:18;;;;;;;;;;;;;;;6.67;67.64;98529.88;5104035;27;19924;-56
2024/01/23 05:20:07;;;;;;;;;;;;;;;6.63;67.79;98526.09;5111211;27;19927;-56
2024/01/23 05:22:55;;;;;;;;;;;;;;;6.67;67.44;98540.69;5113123;27;19924;-59
2024/01/23 05:25:43;;;;;;;;;;;;;;;6.64;67.27;98546.59;5107900;27;20399;-61
2024/01/23 05:28:31;;;;;;;;;;;;;;;6.70;67.23;98564.41;5107381;27;19924;-60
2024/01/23 05:31:21;;;;;;;;;;;;;;;6.80;66.63;98566.31;5102975;27;20377;-57
2024/01/23 05:34:09;;;;;;;;;;;;;;;6.80;65.99;98577.94;5109173;27;19931;-55
2024/01/23 05:36:58;;;;;;;;;;;;;;;6.77;65.79;98593.88;5109801;27;19923;-57
2024/01/23 05:39:46;;;;;;;;;;;;;;;6.86;65.64;98602.22;5108627;27;19930;-58
2024/01/23 05:42:34;;;;;;;;;;;;;;;6.75;65.54;98596.81;5110710;27;19927;-56
2024/01/23 05:45:22;;;;;;;;;;;;;;;6.77;65.30;98605.50;5106973;28;20014;-56
2024/01/23 05:48:11;;;;;;;;;;;;;;;6.85;65.13;98596.03;5107778;28;20028;-56
2024/01/23 05:50:59;;;;;;;;;;;;;;;6.87;64.95;98614.66;5104078;27;19976;-58
2024/01/23 05:53:47;;;;;;;;;;;;;;;6.73;64.74;98620.59;5109314;27;19972;-62
2024/01/23 05:56:38;;;;;;;;;;;;;;;6.75;64.60;98640.03;5104418;27;19935;-56
2024/01/23 05:59:26;;;;;;;;;;;;;;;6.59;65.19;98654.59;5101349;28;20089;-57
2024/01/23 06:02:14;;;;;;;;;;;;;;;6.63;64.15;98662.97;5107611;28;19923;-55
2024/01/23 06:05:04;;;;;;;;;;;;;;;6.54;64.81;98652.69;5103979;28;20282;-57
2024/01/23 06:07:52;;;;;;;;;;;;;;;6.42;64.68;98664.81;5101200;27;20395;-55
2024/01/23 06:10:40;;;;;;;;;;;;;;;6.32;65.53;98679.09;5104830;27;20143;-58
2024/01/23 06:13:31;;;;;;;;;;;;;;;6.43;64.92;98688.84;5107698;28;19940;-56
2024/01/23 06:16:19;;;;;;;;;;;;;;;6.29;65.21;98695.81;5106798;27;19924;-56
2024/01/23 06:19:08;;;;;;;;;;;;;;;6.33;64.87;98696.91;5103154;27;20289;-56
2024/01/23 06:21:57;;;;;;;;;;;;;;;6.35;65.10;98707.44;5100232;27;19984;-56
2024/01/23 06:25:00;;;;;;;;;;;;;;;6.34;65.31;98728.22;5108626;28;19928;-55
2024/01/23 06:27:48;;;;;;;;;;;;;;;6.37;65.44;98719.59;5103724;28;19928;-58
2024/01/23 06:30:36;;;;;;;;;;;;;;;6.28;65.73;98723.84;5095999;28;20053;-56
2024/01/23 06:33:24;;;;;;;;;;;;;;;6.27;64.69;98731.13;5103085;27;20327;-56
2024/01/23 06:36:13;;;;;;;;;;;;;;;6.41;64.95;98744.97;5100428;28;19943;-56
2024/01/23 06:39:03;;;;;;;;;;;;;;;6.34;64.89;98743.56;5101991;27;20446;-55
2024/01/23 06:41:52;;;;;;;;;;;;;;;6.34;64.93;98740.88;5103918;28;19924;-55
2024/01/23 06:44:40;;;;;;;;;;;;;;;6.35;64.65;98747.94;5107623;28;19923;-56
2024/01/23 06:47:28;;;;;;;;;;;;;;;6.34;65.06;98746.28;5104286;27;20074;-56
2024/01/23 06:50:16;;;;;;;;;;;;;;;6.41;64.58;98753.06;5104758;28;20000;-55
2024/01/23 06:53:06;;;;;;;;;;;;;;;6.47;65.04;98748.50;5106055;28;20018;-56
2024/01/23 06:55:55;;;;;;;;;;;;;;;6.41;65.12;98763.88;5099889;28;19947;-56
2024/01/23 06:58:43;;;;;;;;;;;;;;;6.33;65.51;98761.66;5102621;28;20012;-56
2024/01/23 07:01:32;;;;;;;;;;;;;;;6.21;66.23;98780.75;5103704;28;19965;-59
2024/01/23 07:04:20;;;;;;;;;;;;;;;6.30;65.60;98787.31;5117059;28;19927;-56
2024/01/23 07:07:08;;;;;;;;;;;;;;;6.35;65.92;98791.09;5113055;28;19930;-59
2024/01/23 07:09:56;;;;;;;;;;;;;;;6.40;65.62;98799.22;5110889;28;19928;-56
2024/01/23 07:12:46;;;;;;;;;;;;;;;6.41;65.88;98808.94;5113553;28;20292;-56
2024/01/23 07:15:34;;;;;;;;;;;;;;;6.38;66.39;98828.34;5111819;27;19938;-56
2024/01/23 07:18:23;;;;;;;;;;;;;;;6.39;66.69;98830.81;5091833;28;19988;-56
2024/01/23 07:21:11;;;;;;;;;;;;;;;6.43;67.37;98828.38;5102471;27;19935;-58
2024/01/23 07:23:59;;;;;;;;;;;;;;;6.26;68.49;98832.06;5104196;27;19930;-56
2024/01/23 07:26:47;;;;;;;;;;;;;;;6.23;69.46;98831.75;5111010;27;19931;-57
2024/01/23 07:29:38;;;;;;;;;;;;;;;6.03;70.44;98835.16;5103433;28;19931;-56
2024/01/23 07:32:26;;;;;;;;;;;;;;;6.06;70.41;98856.22;5109968;27;19924;-58
2024/01/23 07:35:14;;;;;;;;;;;;;;;6.16;70.30;98852.78;5111410;27;20399;-55
2024/01/23 07:38:02;;;;;;;;;;;;;;;6.21;70.10;98856.31;5109040;27;19977;-56
2024/01/23 07:40:50;;;;;;;;;;;;;;;6.03;70.68;98878.31;5105788;27;20014;-56
2024/01/23 07:43:39;;;;;;;;;;;;;;;6.26;69.72;98882.53;5106462;27;19928;-56
2024/01/23 07:46:28;;;;;;;;;;;;;;;6.22;69.84;98882.22;5105104;27;19927;-58
2024/01/23 07:49:16;;;;;;;;;;;;;;;6.27;69.18;98903.84;5107525;27;20444;-59
2024/01/23 07:52:05;;;;;;;;;;;;;;;6.18;69.73;98905.44;5105784;27;19928;-56
2024/01/23 07:54:53;;;;;;;;;;;;;;;6.21;69.60;98901.38;5105971;27;19924;-56
2024/01/23 07:57:41;;;;;;;;;;;;;;;6.26;69.58;98906.81;5111271;27;20451;-56
2024/01/23 08:00:32;;;;;;;;;;;;;;;6.19;69.34;98895.44;5110545;27;20433;-56
2024/01/23 08:03:22;;;;;;;;;;;;;;;6.24;69.44;98909.78;5105037;27;19938;-55
2024/01/23 08:06:11;;;;;;;;;;;;;;;6.28;68.93;98910.06;5106878;27;20735;-55
2024/01/23 08:08:59;;;;;;;;;;;;;;;6.43;68.50;98912.88;5115856;27;20020;-60
2024/01/23 08:11:48;;;;;;;;;;;;;;;6.46;67.98;98912.38;5108601;27;20026;-57
2024/01/23 08:14:36;;;;;;;;;;;;;;;6.50;67.96;98918.06;5114710;27;19930;-56
2024/01/23 08:17:24;;;;;;;;;;;;;;;6.80;66.89;98930.94;5107708;27;19928;-56
2024/01/23 08:20:14;;;;;;;;;;;;;;;6.58;67.48;98931.06;5102264;27;19931;-56
2024/01/23 08:23:02;;;;;;;;;;;;;;;6.73;66.62;98941.16;5120159;27;19966;-56
2024/01/23 08:25:50;;;;;;;;;;;;;;;6.69;66.72;98943.56;5105204;27;19946;-56
2024/01/23 08:28:38;;;;;;;;;;;;;;;6.64;66.59;98945.41;5107393;27;19928;-57
2024/01/23 08:31:26;;;;;;;;;;;;;;;6.72;66.63;98948.44;5104010;27;21503;-56
2024/01/23 08:34:14;;;;;;;;;;;;;;;6.53;67.32;98955.31;5108525;27;19923;-60
2024/01/23 08:37:04;;;;;;;;;;;;;;;6.66;66.80;98949.50;5111346;28;19927;-55
2024/01/23 08:39:53;;;;;;;;;;;;;;;6.71;66.82;98956.78;5103629;27;19935;-58
2024/01/23 08:42:42;;;;;;;;;;;;;;;6.70;67.04;98950.56;5107384;27;20281;-56
2024/01/23 08:45:30;;;;;;;;;;;;;;;6.76;66.89;98952.22;5111506;28;19923;-57
2024/01/23 08:48:21;;;;;;;;;;;;;;;6.88;66.34;98957.47;5108494;27;20428;-56
2024/01/23 08:51:10;;;;;;;;;;;;;;;6.93;66.69;98964.78;5105266;27;19939;-57
2024/01/23 08:54:00;;;;;;;;;;;;;;;6.95;66.65;98959.91;5100952;28;19931;-56
2024/01/23 08:56:49;;;;;;;;;;;;;;;6.93;66.03;98962.88;5102044;28;19934;-56
2024/01/23 08:59:37;;;;;;;;;;;;;;;7.20;65.58;98970.06;5100865;28;19928;-56
2024/01/23 09:02:28;;;;;;;;;;;;;;;7.08;65.98;98976.47;5107209;28;19931;-57
2024/01/23 09:05:16;;;;;;;;;;;;;;;7.16;66.15;98974.34;5104282;27;19935;-56
2024/01/23 09:08:04;;;;;;;;;;;;;;;7.35;65.09;98984.44;5109769;27;19986;-56
2024/01/23 09:10:54;;;;;;;;;;;;;;;7.35;65.06;98997.97;5111788;27;20444;-56
2024/01/23 09:13:42;;;;;;;;;;;;;;;7.20;64.74;98997.06;5108401;27;20580;-56
2024/01/23 09:16:30;;;;;;;;;;;;;;;7.33;64.55;98994.69;5107397;27;19959;-57
2024/01/23 09:19:18;;;;;;;;;;;;;;;7.44;64.19;98997.44;5109466;27;19924;-57
2024/01/23 09:22:06;;;;;;;;;;;;;;;7.43;63.94;99001.22;5100372;27;20403;-56
2024/01/23 09:24:54;;;;;;;;;;;;;;;7.39;64.14;99002.81;5124211;27;19968;-56
2024/01/23 09:27:43;;;;;;;;;;;;;;;7.52;63.09;99005.88;5107250;27;19924;-57
2024/01/23 09:30:39;;;;;;;;;;;;;;;7.55;62.44;99015.34;5095465;27;19983;-59
2024/01/23 09:33:27;;;;;;;;;;;;;;;7.53;62.38;99017.50;5101878;27;19967;-56
2024/01/23 09:36:15;;;;;;;;;;;;;;;7.47;61.78;99013.97;5114783;27;19924;-55
2024/01/23 09:39:04;;;;;;;;;;;;;;;7.58;60.96;99012.13;5116786;27;20049;-56
2024/01/23 09:41:54;;;;;;;;;;;;;;;7.68;61.08;99025.69;5113828;27;19923;-57
2024/01/23 09:44:43;;;;;;;;;;;;;;;7.64;60.87;99029.97;5113032;27;19924;-56
2024/01/23 09:47:31;;;;;;;;;;;;;;;7.75;61.16;99037.06;5103926;28;19993;-57
2024/01/23 09:50:19;;;;;;;;;;;;;;;7.64;60.92;99045.41;5106340;27;19981;-56
2024/01/23 09:53:07;;;;;;;;;;;;;;;7.76;60.18;99049.50;5106388;27;19942;-56
2024/01/23 09:55:55;;;;;;;;;;;;;;;7.60;60.05;99064.03;5111125;27;20332;-56
2024/01/23 09:58:50;;;;;;;;;;;;;;;7.70;60.17;99044.34;5109667;27;19928;-56
2024/01/23 10:01:39;;;;;;;;;;;;;;;7.81;59.57;99056.81;5118865;27;19923;-56
2024/01/23 10:04:28;;;;;;;;;;;;;;;7.89;59.96;99059.03;5109425;27;19932;-56
2024/01/23 10:07:15;;;;;;;;;;;;;;;7.78;59.64;99058.19;5107653;27;20617;-56
2024/01/23 10:10:05;;;;;;;;;;;;;;;7.77;58.98;99053.00;5116545;27;20067;-57
2024/01/23 10:12:53;;;;;;;;;;;;;;;7.81;59.34;99068.44;5117058;27;19931;-55
2024/01/23 10:15:41;;;;;;;;;;;;;;;7.68;59.42;99066.25;5096127;27;19963;-56
2024/01/23 10:18:31;;;;;;;;;;;;;;;7.56;59.72;99065.63;5111710;27;20014;-57
2024/01/23 10:21:20;;;;;;;;;;;;;;;7.53;60.45;99066.97;5102970;27;19928;-55
2024/01/23 10:24:08;;;;;;;;;;;;;;;7.71;60.29;99064.91;5106479;27;19925;-57
2024/01/23 10:26:56;;;;;;;;;;;;;;;7.76;58.88;99065.72;5107198;27;19923;-56
2024/01/23 10:29:44;;;;;;;;;;;;;;;7.75;58.93;99061.41;5102286;27;19945;-56
2024/01/23 10:32:33;;;;;;;;;;;;;;;7.77;58.50;99063.84;5102976;27;19924;-56
2024/01/23 10:35:22;;;;;;;;;;;;;;;7.67;58.45;99053.81;5099164;28;19931;-58
2024/01/23 10:38:13;;;;;;;;;;;;;;;7.69;58.47;99037.31;5106234;28;19923;-56
2024/01/23 10:41:04;;;;;;;;;;;;;;;7.79;57.64;99035.44;5106773;27;19924;-58
2024/01/23 10:43:53;;;;;;;;;;;;;;;7.85;57.58;99042.50;5105525;28;20441;-56
2024/01/23 10:46:41;;;;;;;;;;;;;;;7.76;57.17;99049.50;5106594;28;19923;-56
2024/01/23 10:49:29;;;;;;;;;;;;;;;7.74;57.80;99038.13;5101074;28;19935;-56
2024/01/23 10:52:19;;;;;;;;;;;;;;;7.70;57.35;99055.97;5102105;27;19927;-56
2024/01/23 10:55:07;;;;;;;;;;;;;;;7.68;57.00;99052.72;5090872;28;19933;-60
2024/01/23 10:57:55;;;;;;;;;;;;;;;7.74;57.80;99037.31;5106032;28;19927;-56
2024/01/23 11:00:43;;;;;;;;;;;;;;;7.84;56.64;99038.19;5111856;28;19924;-56
2024/01/23 11:03:32;;;;;;;;;;;;;;;7.89;56.86;99045.50;5111055;28;19923;-57
2024/01/23 11:06:22;;;;;;;;;;;;;;;7.99;56.80;99047.41;5109050;28;20304;-56
2024/01/23 11:09:15;;;;;;;;;;;;;;;7.80;57.17;99057.91;5121412;28;19934;-57
2024/01/23 11:12:05;;;;;;;;;;;;;;;7.95;56.61;99062.56;5117975;28;20385;-57
2024/01/23 11:14:56;;;;;;;;;;;;;;;8.05;56.52;99062.59;5109608;28;20377;-56
2024/01/23 11:17:44;;;;;;;;;;;;;;;8.04;56.27;99077.19;5111724;28;19924;-56
2024/01/23 11:20:32;;;;;;;;;;;;;;;7.91;56.86;99056.84;5113005;28;19990;-57
2024/01/23 11:23:20;;;;;;;;;;;;;;;8.00;56.81;99066.09;5111173;28;19956;-56
2024/01/23 11:26:15;;;;;;;;;;;;;;;8.13;56.33;99073.69;5115401;28;20427;-56
2024/01/23 11:29:05;;;;;;;;;;;;;;;7.93;56.86;99079.03;5104074;28;19928;-57
2024/01/23 11:31:57;;;;;;;;;;;;;;;7.82;56.87;99078.19;5102847;28;19946;-57
2024/01/23 11:34:45;;;;;;;;;;;;;;;7.96;56.53;99069.59;5115734;28;20000;-56
2024/01/23 11:37:35;;;;;;;;;;;;;;;8.05;56.75;99082.34;5100277;28;20303;-55
2024/01/23 11:40:31;;;;;;;;;;;;;;;8.07;55.35;99082.06;5099085;28;19930;-56
2024/01/23 11:43:24;;;;;;;;;;;;;;;7.96;54.38;99093.94;5103073;28;19927;-55
2024/01/23 11:49:32;;;;;;;;;;;;;;;8.01;53.89;99088.56;5004453;28;19933;-74
2024/01/23 11:52:20;;;;;;;;;;;;;;;7.99;53.13;99088.00;4998756;28;19930;-74
2024/01/23 11:55:08;;;;;;;;;;;;;;;7.89;53.84;99102.31;5008966;28;20123;-74
2024/01/23 11:57:57;;;;;;;;;;;;;;;7.96;53.78;99102.06;5007257;28;20020;-73
2024/01/23 12:00:48;;;;;;;;;;;;;;;7.90;53.93;99127.47;5011013;28;19926;-74
2024/01/23 12:03:36;;;;;;;;;;;;;;;7.72;54.30;99097.09;5001483;28;19925;-73
2024/01/23 12:06:25;;;;;;;;;;;;;;;7.77;54.54;99099.81;5024225;28;19929;-73
2024/01/23 12:09:13;;;;;;;;;;;;;;;7.79;54.62;99104.97;5003867;28;19926;-75
2024/01/23 12:12:02;;;;;;;;;;;;;;;7.83;54.05;99109.59;4996263;28;20026;-73
2024/01/23 12:14:51;;;;;;;;;;;;;;;7.92;53.72;99106.38;4998770;28;19933;-74
2024/01/23 12:17:47;;;;;;;;;;;;;;;7.84;54.14;99100.41;5003147;28;19925;-74
2024/01/23 12:20:35;;;;;;;;;;;;;;;7.91;54.42;99094.75;5015259;28;20040;-73
2024/01/23 12:23:24;;;;;;;;;;;;;;;7.93;55.03;99099.88;5012993;28;20020;-73
2024/01/23 12:26:12;;;;;;;;;;;;;;;7.90;55.20;99106.66;4992632;28;19933;-73
2024/01/23 12:29:02;;;;;;;;;;;;;;;7.85;55.10;99102.03;5012486;28;20319;-73
2024/01/23 12:31:50;;;;;;;;;;;;;;;7.87;55.31;99105.28;5009409;28;19934;-73
2024/01/23 12:34:40;;;;;;;;;;;;;;;7.91;55.85;99094.75;5018239;28;19930;-75
2024/01/23 12:37:29;;;;;;;;;;;;;;;8.06;55.40;99100.22;5018037;28;20016;-74
2024/01/23 12:40:17;;;;;;;;;;;;;;;8.03;55.51;99111.56;5017132;28;19932;-74
2024/01/23 12:43:05;;;;;;;;;;;;;;;7.82;55.62;99112.56;4998126;28;19934;-74
2024/01/23 12:45:54;;;;;;;;;;;;;;;7.85;55.21;99117.44;5000500;28;19925;-73
2024/01/23 12:48:43;;;;;;;;;;;;;;;7.83;55.82;99125.84;5020351;28;19925;-73
2024/01/23 12:51:33;;;;;;;;;;;;;;;7.78;55.94;99120.41;4992050;28;20036;-73
2024/01/23 12:54:21;;;;;;;;;;;;;;;7.81;56.14;99105.53;4998432;28;19925;-73
2024/01/23 12:57:10;;;;;;;;;;;;;;;7.83;56.29;99098.78;4996076;28;19925;-74
2024/01/23 13:00:00;;;;;;;;;;;;;;;7.76;56.08;99102.78;4997818;28;19925;-73
2024/01/23 13:02:49;;;;;;;;;;;;;;;7.71;56.28;99092.75;4994337;28;20305;-74
2024/01/23 13:05:38;;;;;;;;;;;;;;;7.76;56.42;99091.97;4990449;28;20289;-74
2024/01/23 13:08:28;;;;;;;;;;;;;;;7.80;56.03;99104.72;5010479;28;19925;-74
2024/01/23 13:11:16;;;;;;;;;;;;;;;7.81;56.25;99109.03;5012783;28;19929;-74
2024/01/23 13:14:05;;;;;;;;;;;;;;;7.87;55.89;99107.16;5007476;28;20305;-74
2024/01/23 13:16:57;;;;;;;;;;;;;;;7.71;55.67;99089.25;5004764;28;19932;-74
2024/01/23 13:19:45;;;;;;;;;;;;;;;7.80;55.92;99103.91;5012722;28;19925;-74
2024/01/23 13:22:33;;;;;;;;;;;;;;;7.83;54.93;99097.97;5012496;28;19933;-74
2024/01/23 13:25:24;;;;;;;;;;;;;;;7.81;54.36;99102.81;5016292;28;19932;-73
2024/01/23 13:28:12;;;;;;;;;;;;;;;7.99;54.78;99118.59;4998563;28;19925;-74
2024/01/23 13:31:04;;;;;;;;;;;;;;;8.06;54.81;99112.94;5006438;28;19929;-74
2024/01/23 13:33:53;;;;;;;;;;;;;;;8.09;55.05;99113.19;5008537;28;20004;-74
2024/01/23 13:36:42;;;;;;;;;;;;;;;8.18;54.46;99105.38;5008390;28;20035;-74
2024/01/23 13:39:30;;;;;;;;;;;;;;;8.21;54.47;99110.28;4996419;28;20347;-75
2024/01/23 13:42:20;;;;;;;;;;;;;;;8.43;54.67;99112.00;5005902;28;20059;-74
2024/01/23 13:45:09;;;;;;;;;;;;;;;8.54;54.14;99111.75;5003829;28;20361;-75
2024/01/23 13:47:57;;;;;;;;;;;;;;;8.51;54.27;99114.16;5008653;28;19926;-74
2024/01/23 13:50:46;;;;;;;;;;;;;;;8.62;54.30;99119.31;5009917;28;20413;-75
2024/01/23 13:53:34;;;;;;;;;;;;;;;8.53;54.43;99117.44;4994856;28;19929;-74
2024/01/23 13:56:23;;;;;;;;;;;;;;;8.61;54.60;99127.72;4993258;28;19933;-75
2024/01/23 13:59:14;;;;;;;;;;;;;;;8.66;54.40;99116.91;4989507;28;20398;-75
2024/01/23 14:02:03;;;;;;;;;;;;;;;8.54;54.09;99103.59;5009126;28;19925;-74
2024/01/23 14:04:51;;;;;;;;;;;;;;;8.48;53.55;99101.16;4994519;28;19936;-74
2024/01/23 14:07:40;;;;;;;;;;;;;;;8.51;54.05;99098.72;5002092;28;19929;-74
2024/01/23 14:10:28;;;;;;;;;;;;;;;8.70;54.37;99107.16;4998137;28;20393;-75
2024/01/23 14:13:17;;;;;;;;;;;;;;;8.75;53.67;99092.81;5006087;28;19933;-74
2024/01/23 14:16:08;;;;;;;;;;;;;;;8.77;54.21;99090.63;4987671;28;20381;-74
2024/01/23 14:18:58;;;;;;;;;;;;;;;8.79;53.88;99073.03;4995288;28;20032;-75
2024/01/23 14:21:47;;;;;;;;;;;;;;;8.69;54.40;99093.88;4993446;28;19926;-74
2024/01/23 14:24:36;;;;;;;;;;;;;;;8.69;54.16;99110.94;4995938;28;19925;-74
2024/01/23 14:27:25;;;;;;;;;;;;;;;8.73;53.87;99112.00;5008461;28;19933;-75
2024/01/23 14:30:13;;;;;;;;;;;;;;;8.63;54.07;99128.28;5004970;28;19932;-75
2024/01/23 14:33:03;;;;;;;;;;;;;;;8.37;54.01;99130.94;5007845;28;19944;-74
2024/01/23 14:35:52;;;;;;;;;;;;;;;8.31;54.22;99131.97;5003633;28;20533;-74
2024/01/23 14:38:40;;;;;;;;;;;;;;;8.24;54.57;99125.16;5024766;28;19960;-75
2024/01/23 14:41:28;;;;;;;;;;;;;;;8.12;54.64;99131.63;4998314;28;19926;-74
2024/01/23 14:44:17;;;;;;;;;;;;;;;8.26;54.40;99133.84;4994982;28;19933;-75
2024/01/23 14:47:07;;;;;;;;;;;;;;;8.12;54.84;99137.03;4996842;28;21848;-74
2024/01/23 14:49:56;;;;;;;;;;;;;;;8.15;55.10;99146.53;4997107;28;19925;-74
2024/01/23 14:52:45;;;;;;;;;;;;;;;8.25;54.83;99141.13;5009945;28;20313;-74
2024/01/23 14:55:34;;;;;;;;;;;;;;;8.14;55.46;99139.47;5012591;28;19926;-74